Terminal Aerodrome Forecast
Issued by NWS

Home | Current Version | Previous Version | Graphics & Text | Print | Product List | Glossary Off
Versions: 1 2 3 4 5 6 7 8 9 10 11 12 13 14 15 16 17 18 19 20 21 22 23

000
FTUS43 KDDC 261142
TAFGCK
TAF
KGCK 261142Z 2612/2712 11006KT 1/4SM FG VV002
      TEMPO 2613/2615 1SM BR BKN004
     FM261500 05007KT P6SM SCT110
     FM261800 11010G22KT P6SM SCT250
     FM262000 15016G25KT P6SM SCT250
     FM270000 18017KT P6SM FEW250
     FM270600 17009KT P6SM FEW250=

USA.gov is the U.S. government's official web portal to all federal, state and local government web resources and services.